createdAt,value
2022-11-13T00:02:34.703Z,97461.81
2022-11-13T00:05:20.186Z,97468.50
2022-11-13T00:08:05.466Z,97462.84
2022-11-13T00:10:50.762Z,97457.44
2022-11-13T00:13:36.468Z,97462.84
2022-11-13T00:16:21.858Z,97465.69
2022-11-13T00:19:06.899Z,97475.97
2022-11-13T00:21:52.282Z,97461.84
2022-11-13T00:24:37.638Z,97472.91
2022-11-13T00:27:22.982Z,97461.09
2022-11-13T00:30:08.848Z,97474.44
2022-11-13T00:32:54.220Z,97469.31
2022-11-13T00:35:39.477Z,97467.22
2022-11-13T00:38:24.738Z,97462.38
2022-11-13T00:41:10.004Z,97463.38
2022-11-13T00:43:55.259Z,97464.94
2022-11-13T00:46:40.549Z,97454.91
2022-11-13T00:49:25.906Z,97460.59
2022-11-13T00:52:11.255Z,97451.81
2022-11-13T00:54:56.584Z,97456.97
2022-11-13T00:57:42.018Z,97460.03
2022-11-13T01:00:27.332Z,97463.63
2022-11-13T01:03:13.367Z,97459.03
2022-11-13T01:05:58.497Z,97465.97
2022-11-13T01:08:44.169Z,97457.22
2022-11-13T01:11:30.636Z,97465.19
2022-11-13T01:14:16.078Z,97461.06
2022-11-13T01:17:01.435Z,97454.38
2022-11-13T01:19:46.792Z,97465.47
2022-11-13T01:22:32.409Z,97456.97
2022-11-13T01:25:18.431Z,97458.00
2022-11-13T01:28:03.904Z,97462.09
2022-11-13T01:30:49.353Z,97471.09
2022-11-13T01:33:34.925Z,97460.81
2022-11-13T01:36:23.340Z,97459.03
2022-11-13T01:39:11.164Z,97453.63
2022-11-13T01:41:56.382Z,97465.94
2022-11-13T01:44:50.644Z,97469.56
2022-11-13T01:47:36.025Z,97464.44
2022-11-13T01:50:21.127Z,97467.75
2022-11-13T01:53:07.377Z,97456.97
2022-11-13T01:55:52.895Z,97472.09
2022-11-13T01:58:39.087Z,97462.63
2022-11-13T02:01:24.808Z,97451.56
2022-11-13T02:04:10.608Z,97450.53
2022-11-13T02:06:59.511Z,97455.19
2022-11-13T02:09:48.181Z,97461.09
2022-11-13T02:12:42.070Z,97451.53
2022-11-13T02:15:31.920Z,97462.38
2022-11-13T02:18:21.592Z,97462.88
2022-11-13T02:21:37.516Z,97458.72
2022-11-13T02:24:33.347Z,97455.66
2022-11-13T02:27:41.442Z,97448.72
2022-11-13T02:30:31.625Z,97450.50
2022-11-13T02:33:32.102Z,97449.25
2022-11-13T02:36:20.271Z,97440.75
2022-11-13T02:39:09.576Z,97435.59
2022-11-13T02:41:55.099Z,97443.84
2022-11-13T02:44:40.228Z,97442.53
2022-11-13T02:47:25.630Z,97441.25
2022-11-13T02:50:11.973Z,97436.38
2022-11-13T02:52:57.765Z,97437.16
2022-11-13T02:55:43.212Z,97439.97
2022-11-13T02:58:29.254Z,97422.22
2022-11-13T03:01:14.846Z,97434.31
2022-11-13T03:04:00.615Z,97439.19
2022-11-13T03:06:45.916Z,97436.88
2022-11-13T03:09:31.116Z,97431.72
2022-11-13T03:12:16.430Z,97434.31
2022-11-13T03:15:01.932Z,97437.13
2022-11-13T03:17:47.133Z,97427.63
2022-11-13T03:20:33.730Z,97436.59
2022-11-13T03:23:18.974Z,97441.00
2022-11-13T03:26:06.762Z,97435.59
2022-11-13T03:28:51.949Z,97433.78
2022-11-13T03:31:37.448Z,97442.78
2022-11-13T03:34:22.610Z,97439.19
2022-11-13T03:37:08.089Z,97437.38
2022-11-13T03:39:53.566Z,97432.78
2022-11-13T03:42:38.955Z,97431.47
2022-11-13T03:45:24.233Z,97434.53
2022-11-13T03:48:09.569Z,97425.56
2022-11-13T03:50:55.944Z,97428.16
2022-11-13T03:53:41.211Z,97431.72
2022-11-13T03:56:26.544Z,97438.09
2022-11-13T03:59:11.607Z,97424.25
2022-11-13T04:01:57.044Z,97419.41
2022-11-13T04:04:42.232Z,97429.63
2022-11-13T04:07:27.860Z,97407.84
2022-11-13T04:10:14.074Z,97426.06
2022-11-13T04:12:59.051Z,97428.38
2022-11-13T04:15:44.588Z,97425.03
2022-11-13T04:18:30.231Z,97434.75
2022-11-13T04:21:15.855Z,97429.94
2022-11-13T04:24:01.158Z,97440.91
2022-11-13T04:26:46.528Z,97436.03
2022-11-13T04:29:32.000Z,97438.31
2022-11-13T04:32:17.327Z,97440.34
2022-11-13T04:35:03.700Z,97439.28
2022-11-13T04:37:48.688Z,97432.34
2022-11-13T04:40:34.035Z,97436.41
2022-11-13T04:43:19.522Z,97438.19
2022-11-13T04:46:04.650Z,97438.94
2022-11-13T04:48:50.119Z,97437.38
2022-11-13T04:51:35.571Z,97434.81
2022-11-13T04:54:25.745Z,97427.88
2022-11-13T04:57:13.803Z,97437.06
2022-11-13T04:59:59.095Z,97416.28
2022-11-13T05:02:44.370Z,97415.78
2022-11-13T05:05:30.035Z,97421.22
2022-11-13T05:08:14.953Z,97392.28
2022-11-13T05:11:04.140Z,97391.03
2022-11-13T05:13:49.706Z,97392.06
2022-11-13T05:16:36.549Z,97381.59
2022-11-13T05:19:22.012Z,97355.91
2022-11-13T05:22:07.778Z,97373.88
2022-11-13T05:24:52.924Z,97375.38
2022-11-13T05:27:38.301Z,97366.91
2022-11-13T05:30:23.886Z,97374.81
2022-11-13T05:33:08.992Z,97368.16
2022-11-13T05:35:54.384Z,97361.75
2022-11-13T05:38:40.625Z,97353.75
2022-11-13T05:41:26.544Z,97357.06
2022-11-13T05:44:11.664Z,97343.25
2022-11-13T05:46:57.153Z,97350.91
2022-11-13T05:49:42.498Z,97339.34
2022-11-13T05:52:27.710Z,97337.28
2022-11-13T05:55:13.011Z,97328.31
2022-11-13T05:57:59.160Z,97334.97
2022-11-13T06:00:44.222Z,97322.44
2022-11-13T06:03:29.520Z,97320.88
2022-11-13T06:06:18.438Z,97312.66
2022-11-13T06:09:06.317Z,97319.06
2022-11-13T06:11:51.949Z,97314.97
2022-11-13T06:14:37.200Z,97320.88
2022-11-13T06:17:22.415Z,97318.56
2022-11-13T06:20:08.362Z,97320.63
2022-11-13T06:22:53.792Z,97323.19
2022-11-13T06:25:41.950Z,97320.09
2022-11-13T06:28:27.454Z,97332.09
2022-11-13T06:31:24.361Z,97334.19
2022-11-13T06:34:09.822Z,97332.41
2022-11-13T06:36:55.180Z,97325.72
2022-11-13T06:39:40.416Z,97325.50
2022-11-13T06:42:25.684Z,97320.41
2022-11-13T06:45:11.415Z,97319.59
2022-11-13T06:47:56.759Z,97325.00
2022-11-13T06:50:47.212Z,97360.97
2022-11-13T06:53:33.793Z,97365.66
2022-11-13T06:56:19.696Z,97384.72
2022-11-13T06:59:08.417Z,97425.81
2022-11-13T07:01:53.793Z,97393.81
2022-11-13T07:04:39.036Z,97379.28
2022-11-13T07:07:24.509Z,97373.94
2022-11-13T07:10:10.435Z,97338.50
2022-11-13T07:12:55.396Z,97330.09
2022-11-13T07:15:40.549Z,97290.69
2022-11-13T07:18:26.332Z,97282.00
2022-11-13T07:21:13.212Z,97255.59
2022-11-13T07:23:58.758Z,97222.47
2022-11-13T07:26:44.042Z,97222.75
2022-11-13T07:29:29.549Z,97213.41
2022-11-13T07:32:15.232Z,97225.34
2022-11-13T07:35:01.231Z,97197.41
2022-11-13T07:37:46.806Z,97181.44
2022-11-13T07:40:32.521Z,97139.75
2022-11-13T07:43:18.424Z,97112.00
2022-11-13T07:46:03.965Z,97047.88
2022-11-13T07:48:52.950Z,97062.31
2022-11-13T07:51:38.607Z,97031.81
2022-11-13T07:54:24.061Z,96991.50
2022-11-13T07:57:09.834Z,97009.22
2022-11-13T07:59:55.387Z,96986.88
2022-11-13T08:02:41.277Z,96952.25
2022-11-13T08:05:27.283Z,96989.34
2022-11-13T08:08:14.882Z,96985.88
2022-11-13T08:11:07.896Z,96987.34
2022-11-13T08:13:53.364Z,96981.16
2022-11-13T08:16:39.321Z,96986.66
2022-11-13T08:19:25.156Z,96964.50
2022-11-13T08:22:10.556Z,96982.03
2022-11-13T08:24:56.134Z,96959.53
2022-11-13T08:27:41.998Z,96956.28
2022-11-13T08:30:29.306Z,96944.63
2022-11-13T08:33:15.094Z,96930.38
2022-11-13T08:36:01.058Z,96937.44
2022-11-13T08:38:48.849Z,96922.34
2022-11-13T08:41:34.283Z,96910.84
2022-11-13T08:44:19.789Z,96911.72
2022-11-13T08:47:05.936Z,96897.53
2022-11-13T08:49:51.689Z,96900.31
2022-11-13T08:52:37.587Z,96887.66
2022-11-13T08:55:23.621Z,96891.94
2022-11-13T08:58:09.280Z,96892.34
2022-11-13T09:01:00.750Z,96891.69
2022-11-13T09:03:49.647Z,96889.38
2022-11-13T09:06:35.494Z,96881.66
2022-11-13T09:09:22.207Z,96875.03
2022-11-13T09:12:08.367Z,96878.28
2022-11-13T09:14:54.201Z,96901.91
2022-11-13T09:17:39.877Z,96925.66
2022-11-13T09:20:27.012Z,96895.78
2022-11-13T09:23:12.997Z,96933.56
2022-11-13T09:26:02.431Z,96942.63
2022-11-13T09:28:48.308Z,96988.22
2022-11-13T09:31:34.434Z,96999.03
2022-11-13T09:34:20.364Z,97033.56
2022-11-13T09:37:06.078Z,97082.50
2022-11-13T09:39:51.740Z,97091.75
2022-11-13T09:42:40.225Z,97149.56
2022-11-13T09:45:26.016Z,97158.50
2022-11-13T09:48:22.699Z,97155.06
2022-11-13T09:51:16.536Z,97159.75
2022-11-13T09:54:06.134Z,97164.81
2022-11-13T09:57:24.600Z,97251.75
2022-11-13T10:00:15.598Z,97318.38
2022-11-13T10:03:13.056Z,97295.81
2022-11-13T10:06:18.963Z,97263.03
2022-11-13T10:09:24.968Z,97349.25
2022-11-13T10:12:14.150Z,97358.53
2022-11-13T10:15:02.776Z,97509.13
2022-11-13T10:18:17.703Z,97475.34
2022-11-13T10:21:38.822Z,97591.88
2022-11-13T10:24:43.417Z,97588.16
2022-11-13T10:27:28.996Z,97519.31
2022-11-13T10:30:19.305Z,97556.88
2022-11-13T10:33:08.503Z,97698.59
2022-11-13T10:36:04.949Z,97683.94
2022-11-13T10:39:02.624Z,97685.91
2022-11-13T10:41:50.652Z,97786.59
2022-11-13T10:44:36.229Z,97819.38
2022-11-13T10:48:02.027Z,97793.41
2022-11-13T10:50:34.662Z,97827.84
2022-11-13T10:53:21.033Z,97721.53
2022-11-13T10:56:36.489Z,97765.84
2022-11-13T10:59:22.129Z,97750.72
2022-11-13T11:02:25.810Z,97857.16
2022-11-13T11:05:23.115Z,97928.78
2022-11-13T11:08:15.036Z,97916.22
2022-11-13T11:11:21.034Z,98035.22
2022-11-13T11:14:45.255Z,98060.78
2022-11-13T11:17:54.098Z,98026.16
2022-11-13T11:20:43.017Z,98026.25
2022-11-13T11:23:43.804Z,98057.44
2022-11-13T11:26:51.695Z,98006.00
2022-11-13T11:29:45.167Z,98028.06
2022-11-13T11:32:49.304Z,98018.47
2022-11-13T11:35:40.550Z,98206.09
2022-11-13T11:39:15.859Z,98165.97
2022-11-13T11:42:26.652Z,98212.06
2022-11-13T11:45:20.729Z,98140.63
2022-11-13T11:48:14.510Z,98151.41
2022-11-13T11:51:06.116Z,98073.69
2022-11-13T11:54:03.092Z,98109.13
2022-11-13T11:57:04.967Z,98036.94
2022-11-13T12:00:18.959Z,98171.25
2022-11-13T12:03:32.007Z,98147.13
2022-11-13T12:06:56.602Z,98203.22
2022-11-13T12:10:25.896Z,98192.34
2022-11-13T12:13:27.415Z,98161.91
2022-11-13T12:16:32.494Z,98199.28
2022-11-13T12:19:32.573Z,98180.22
2022-11-13T12:22:43.733Z,98197.88
2022-11-13T12:25:54.410Z,98092.41
2022-11-13T12:28:50.638Z,98123.63
2022-11-13T12:31:39.510Z,98207.13
2022-11-13T12:34:36.548Z,98159.66
2022-11-13T12:37:48.176Z,98203.16
2022-11-13T12:40:48.678Z,98309.84
2022-11-13T12:43:49.550Z,98243.31
2022-11-13T12:46:42.370Z,98260.53
2022-11-13T12:49:33.807Z,98210.03
2022-11-13T12:52:24.198Z,98165.69
2022-11-13T12:55:27.034Z,98125.03
2022-11-13T12:58:31.590Z,98159.13
2022-11-13T13:01:20.029Z,98116.22
2022-11-13T13:04:26.959Z,98120.19
2022-11-13T13:07:31.589Z,98076.66
2022-11-13T13:10:23.742Z,98126.84
2022-11-13T13:13:45.048Z,98131.91
2022-11-13T13:16:30.531Z,98210.06
2022-11-13T13:19:29.568Z,98164.09
2022-11-13T13:22:34.091Z,98117.25
2022-11-13T13:25:30.255Z,98131.75
2022-11-13T13:28:19.955Z,98170.97
2022-11-13T13:31:51.140Z,98189.13
2022-11-13T13:34:55.176Z,98161.41
2022-11-13T13:37:50.949Z,98194.22
2022-11-13T13:41:14.593Z,98185.28
2022-11-13T13:44:21.849Z,98204.06
2022-11-13T13:47:18.430Z,98203.44
2022-11-13T13:50:06.872Z,98211.78
2022-11-13T13:52:56.011Z,98213.00
2022-11-13T13:55:48.971Z,98196.22
2022-11-13T13:58:37.274Z,98180.84
2022-11-13T14:01:31.080Z,98105.81
2022-11-13T14:04:22.127Z,98090.16
2022-11-13T14:07:21.985Z,98011.28
2022-11-13T14:10:23.809Z,98049.56
2022-11-13T14:13:13.614Z,98077.81
2022-11-13T14:16:04.653Z,98040.78
2022-11-13T14:18:50.443Z,98105.03
2022-11-13T14:21:36.266Z,98109.47
2022-11-13T14:24:26.138Z,98049.06
2022-11-13T14:27:15.924Z,97969.50
2022-11-13T14:30:03.316Z,98007.28
2022-11-13T14:32:51.801Z,98022.34
2022-11-13T14:35:39.444Z,98051.84
2022-11-13T14:38:30.446Z,98101.19
2022-11-13T14:41:38.782Z,98131.31
2022-11-13T14:44:35.358Z,98160.66
2022-11-13T14:47:30.282Z,98104.38
2022-11-13T14:50:46.626Z,98113.25
2022-11-13T14:53:37.185Z,98039.81
2022-11-13T14:56:32.783Z,98034.28
2022-11-13T14:59:27.582Z,98007.53
2022-11-13T15:02:14.013Z,98000.78
2022-11-13T15:04:59.875Z,97981.91
2022-11-13T15:07:46.159Z,97955.13
2022-11-13T15:10:31.940Z,97896.38
2022-11-13T15:13:18.446Z,97943.34
2022-11-13T15:16:04.288Z,97908.66
2022-11-13T15:18:58.175Z,97910.78
2022-11-13T15:21:51.023Z,97827.28
2022-11-13T15:24:49.849Z,97834.19
2022-11-13T15:27:40.337Z,97844.44
2022-11-13T15:30:30.326Z,97800.41
2022-11-13T15:33:17.128Z,97745.78
2022-11-13T15:36:02.701Z,97696.75
2022-11-13T15:38:48.661Z,97689.03
2022-11-13T15:41:34.817Z,97684.56
2022-11-13T15:44:20.720Z,97632.16
2022-11-13T15:47:27.710Z,97624.16
2022-11-13T15:50:15.162Z,97688.56
2022-11-13T15:53:05.388Z,97621.25
2022-11-13T15:55:51.309Z,97585.44
2022-11-13T15:58:37.363Z,97587.28
2022-11-13T16:01:23.628Z,97625.81
2022-11-13T16:04:09.667Z,97565.59
2022-11-13T16:06:55.708Z,97554.19
2022-11-13T16:09:41.166Z,97506.00
2022-11-13T16:12:26.664Z,97463.44
2022-11-13T16:15:16.996Z,97450.41
2022-11-13T16:18:02.925Z,97469.50
2022-11-13T16:20:48.313Z,97601.31
2022-11-13T16:23:34.128Z,97550.19
2022-11-13T16:26:22.339Z,97517.91
2022-11-13T16:29:20.128Z,97511.59
2022-11-13T16:32:05.976Z,97522.03
2022-11-13T16:34:51.745Z,97520.03
2022-11-13T16:37:37.070Z,97523.56
2022-11-13T16:40:26.109Z,97566.16
2022-11-13T16:43:12.222Z,97557.81
2022-11-13T16:46:00.541Z,97528.66
2022-11-13T16:48:47.618Z,97460.81
2022-11-13T16:51:33.012Z,97486.28
2022-11-13T16:54:18.749Z,97487.34
2022-11-13T16:57:04.469Z,97452.59
2022-11-13T16:59:50.108Z,97444.97
2022-11-13T17:02:36.083Z,97406.78
2022-11-13T17:05:23.554Z,97362.56
2022-11-13T17:08:12.583Z,97319.09
2022-11-13T17:10:58.858Z,97311.22
2022-11-13T17:13:49.602Z,97381.38
2022-11-13T17:16:34.964Z,97413.09
2022-11-13T17:19:20.539Z,97348.44
2022-11-13T17:22:06.504Z,97310.50
2022-11-13T17:24:52.286Z,97310.22
2022-11-13T17:27:37.778Z,97317.91
2022-11-13T17:30:23.857Z,97298.94
2022-11-13T17:33:09.691Z,97335.22
2022-11-13T17:35:56.227Z,97322.97
2022-11-13T17:38:41.884Z,97284.41
2022-11-13T17:41:28.177Z,97258.16
2022-11-13T17:44:13.803Z,97256.47
2022-11-13T17:46:59.571Z,97241.19
2022-11-13T17:49:46.065Z,97254.75
2022-11-13T17:52:31.542Z,97220.06
2022-11-13T17:55:17.554Z,97198.56
2022-11-13T17:58:03.256Z,97155.72
2022-11-13T18:00:49.511Z,97152.69
2022-11-13T18:03:35.578Z,97213.66
2022-11-13T18:06:21.609Z,97205.31
2022-11-13T18:09:07.511Z,97169.97
2022-11-13T18:11:53.380Z,97123.81
2022-11-13T18:14:38.856Z,97121.56
2022-11-13T18:17:25.397Z,97138.09
2022-11-13T18:20:11.421Z,97173.09
2022-11-13T18:22:57.356Z,97162.78
2022-11-13T18:25:43.042Z,97154.84
2022-11-13T18:28:28.718Z,97110.22
2022-11-13T18:31:17.140Z,97077.19
2022-11-13T18:34:04.780Z,97051.06
2022-11-13T18:36:50.824Z,97021.16
2022-11-13T18:39:36.303Z,96998.50
2022-11-13T18:42:21.963Z,96987.44
2022-11-13T18:45:08.632Z,96982.69
2022-11-13T18:47:54.147Z,96950.09
2022-11-13T18:50:39.825Z,96947.00
2022-11-13T18:53:26.289Z,96922.72
2022-11-13T18:56:15.390Z,96902.94
2022-11-13T18:59:01.175Z,96891.75
2022-11-13T19:01:47.180Z,96871.03
2022-11-13T19:04:34.699Z,96866.16
2022-11-13T19:07:21.164Z,96841.63
2022-11-13T19:10:06.940Z,96844.41
2022-11-13T19:12:52.552Z,96837.72
2022-11-13T19:15:39.349Z,96830.47
2022-11-13T19:18:25.127Z,96825.03
2022-11-13T19:21:16.225Z,96828.47
2022-11-13T19:24:02.890Z,96837.63
2022-11-13T19:26:48.584Z,96831.34
2022-11-13T19:29:34.283Z,96830.47
2022-11-13T19:32:19.869Z,96844.97
2022-11-13T19:35:05.808Z,96858.31
2022-11-13T19:37:57.010Z,96846.47
2022-11-13T19:40:51.963Z,96902.25
2022-11-13T19:43:40.462Z,96927.22
2022-11-13T19:46:26.261Z,96936.66
2022-11-13T19:49:11.859Z,96955.09
2022-11-13T19:51:57.484Z,96949.13
2022-11-13T19:54:43.052Z,96943.59
2022-11-13T19:57:28.757Z,96925.31
2022-11-13T20:00:15.194Z,96920.16
2022-11-13T20:03:03.838Z,96907.78
2022-11-13T20:05:54.522Z,96930.41
2022-11-13T20:08:40.863Z,96917.13
2022-11-13T20:11:27.229Z,96921.47
2022-11-13T20:14:13.257Z,96934.69
2022-11-13T20:16:58.903Z,96964.84
2022-11-13T20:19:44.387Z,96958.69
2022-11-13T20:22:29.738Z,96963.69
2022-11-13T20:25:15.575Z,96986.00
2022-11-13T20:28:01.279Z,96985.13
2022-11-13T20:30:47.438Z,96956.84
2022-11-13T20:33:34.964Z,96953.16
2022-11-13T20:36:21.345Z,96962.13
2022-11-13T20:39:09.278Z,96954.66
2022-11-13T20:41:54.944Z,96948.13
2022-11-13T20:44:40.566Z,96948.38
2022-11-13T20:47:26.780Z,96955.19
2022-11-13T20:50:12.209Z,96940.78
2022-11-13T20:52:57.642Z,96957.91
2022-11-13T20:55:43.258Z,96953.28
2022-11-13T20:58:29.792Z,96959.56
2022-11-13T21:01:22.287Z,96970.63
2022-11-13T21:04:07.554Z,96978.69
2022-11-13T21:06:53.115Z,96993.53
2022-11-13T21:09:38.484Z,96984.41
2022-11-13T21:12:24.194Z,96980.13
2022-11-13T21:15:10.177Z,97004.41
2022-11-13T21:17:55.929Z,97024.66
2022-11-13T21:20:41.710Z,97072.69
2022-11-13T21:23:29.537Z,97048.50
2022-11-13T21:26:15.575Z,97057.50
2022-11-13T21:29:04.178Z,97046.59
2022-11-13T21:31:49.804Z,97045.00
2022-11-13T21:34:35.129Z,97056.84
2022-11-13T21:37:20.644Z,97104.38
2022-11-13T21:40:08.060Z,97100.88
2022-11-13T21:42:54.113Z,97074.00
2022-11-13T21:45:40.056Z,97097.44
2022-11-13T21:48:29.250Z,97038.97
2022-11-13T21:51:18.293Z,96967.78
2022-11-13T21:54:04.751Z,96917.84
2022-11-13T21:56:50.416Z,96976.38
2022-11-13T21:59:36.134Z,97005.94
2022-11-13T22:02:22.024Z,97008.81
2022-11-13T22:05:08.053Z,97015.97
2022-11-13T22:07:53.353Z,97065.34
2022-11-13T22:10:38.971Z,97038.19
2022-11-13T22:13:24.492Z,97018.47
2022-11-13T22:16:12.291Z,97007.38
2022-11-13T22:19:01.196Z,97012.06
2022-11-13T22:21:47.705Z,97014.56
2022-11-13T22:24:36.454Z,96994.00
2022-11-13T22:27:22.087Z,96967.09
2022-11-13T22:30:08.399Z,96981.47
2022-11-13T22:32:54.337Z,96976.19
2022-11-13T22:35:39.769Z,96954.28
2022-11-13T22:38:25.169Z,96963.94
2022-11-13T22:41:24.341Z,96933.53
2022-11-13T22:44:12.692Z,96915.09
2022-11-13T22:46:58.456Z,96933.00
2022-11-13T22:49:45.164Z,96917.22
2022-11-13T22:52:30.592Z,96882.97
2022-11-13T22:55:16.346Z,96874.91
2022-11-13T22:58:01.863Z,96854.66
2022-11-13T23:00:47.268Z,96833.44
2022-11-13T23:03:33.014Z,96820.66
2022-11-13T23:06:21.794Z,96804.59
2022-11-13T23:09:07.185Z,96797.41
2022-11-13T23:11:53.012Z,96784.88
2022-11-13T23:14:38.539Z,96772.94
2022-11-13T23:17:24.020Z,96759.19
2022-11-13T23:20:09.955Z,96753.63
2022-11-13T23:22:55.443Z,96734.13
2022-11-13T23:25:41.021Z,96726.91
2022-11-13T23:28:27.627Z,96723.13
2022-11-13T23:31:13.980Z,96727.09
2022-11-13T23:33:59.712Z,96726.41
2022-11-13T23:36:45.052Z,96718.97
2022-11-13T23:39:30.779Z,96711.63
2022-11-13T23:42:33.026Z,96710.97
2022-11-13T23:45:22.254Z,96703.34
2022-11-13T23:48:08.001Z,96693.50
2022-11-13T23:50:53.908Z,96681.50
2022-11-13T23:53:39.261Z,96686.03
2022-11-13T23:56:24.784Z,96674.78
2022-11-13T23:59:10.468Z,96665.13
